createdAt,value
2016-03-29T00:00:32.708Z,99.99
2016-03-29T00:01:32.695Z,99.99
2016-03-29T00:02:45.448Z,99.99
2016-03-29T00:03:32.733Z,99.99
2016-03-29T00:04:58.407Z,99.99
2016-03-29T00:05:32.770Z,99.99
2016-03-29T00:06:32.772Z,99.99
2016-03-29T00:07:42.353Z,99.99
2016-03-29T00:08:42.371Z,99.99
2016-03-29T00:09:42.405Z,99.99
2016-03-29T00:12:23.303Z,99.99
2016-03-29T00:12:57.647Z,99.99
2016-03-29T00:13:57.650Z,99.99
2016-03-29T00:14:57.513Z,99.99
2016-03-29T00:15:57.702Z,99.99
2016-03-29T00:16:57.704Z,99.99
2016-03-29T00:17:57.738Z,99.99
2016-03-29T00:18:58.351Z,99.99
2016-03-29T00:19:58.369Z,99.99
2016-03-29T00:20:57.762Z,99.99
2016-03-29T00:22:10.518Z,99.99
2016-03-29T00:22:58.409Z,99.99
2016-03-29T00:23:57.801Z,99.99
2016-03-29T00:25:10.588Z,99.99
2016-03-29T00:25:57.838Z,99.99
2016-03-29T00:26:57.873Z,99.99
2016-03-29T00:27:57.875Z,99.99
2016-03-29T00:28:57.893Z,99.99
2016-03-29T00:29:57.928Z,99.99
2016-03-29T00:30:57.914Z,99.99
2016-03-29T00:31:58.026Z,99.99
2016-03-29T00:32:57.981Z,99.99
2016-03-29T00:34:04.316Z,99.99
2016-03-29T00:34:57.972Z,99.99
2016-03-29T00:35:57.990Z,99.99
2016-03-29T00:36:58.025Z,99.99
2016-03-29T00:37:58.027Z,99.99
2016-03-29T00:38:58.045Z,99.99
2016-03-29T00:39:58.266Z,99.99
2016-03-29T00:40:58.067Z,99.99
2016-03-29T00:41:58.085Z,99.99
2016-03-29T00:43:10.840Z,99.99
2016-03-29T00:43:58.121Z,99.99
2016-03-29T00:44:58.139Z,99.99
2016-03-29T00:45:58.158Z,99.99
2016-03-29T00:46:58.191Z,99.99
2016-03-29T00:48:17.400Z,99.99
2016-03-29T00:48:58.213Z,99.99
2016-03-29T00:49:58.216Z,99.63
2016-03-29T00:50:58.234Z,99.99
2016-03-29T00:51:58.252Z,99.91
2016-03-29T00:53:04.538Z,99.54
2016-03-29T00:53:58.273Z,99.54
2016-03-29T00:54:58.307Z,99.54
2016-03-29T00:55:58.326Z,99.44
2016-03-29T00:56:58.329Z,99.35
2016-03-29T00:57:58.362Z,98.49
2016-03-29T00:58:58.365Z,98.59
2016-03-29T00:59:58.415Z,98.3
2016-03-29T01:00:58.401Z,98.3
2016-03-29T01:02:17.610Z,98.21
2016-03-29T01:02:58.423Z,98.59
2016-03-29T01:03:58.487Z,98.68
2016-03-29T01:04:58.443Z,98.4
2016-03-29T01:05:58.477Z,98.68
2016-03-29T01:07:04.764Z,98.59
2016-03-29T01:07:58.503Z,98.49
2016-03-29T01:08:58.537Z,98.49
2016-03-29T01:09:58.555Z,98.68
2016-03-29T01:10:58.558Z,98.78
2016-03-29T01:11:58.561Z,98.21
2016-03-29T01:12:58.579Z,98.11
2016-03-29T01:13:58.597Z,97.92
2016-03-29T01:14:58.632Z,97.36
2016-03-29T01:16:00.056Z,97.26
2016-03-29T01:16:58.668Z,97.07
2016-03-29T01:17:58.671Z,96.88
2016-03-29T01:18:58.689Z,96.97
2016-03-29T01:19:58.707Z,96.97
2016-03-29T01:20:58.710Z,97.17
2016-03-29T01:21:58.743Z,97.17
2016-03-29T01:22:58.747Z,96.78
2016-03-29T01:24:11.502Z,96.22
2016-03-29T01:24:58.784Z,96.12
2016-03-29T01:25:58.786Z,95.74
2016-03-29T01:26:58.820Z,95.65
2016-03-29T01:28:11.575Z,95.74
2016-03-29T01:28:58.840Z,96.22
2016-03-29T01:30:18.065Z,95.98
2016-03-29T01:30:58.893Z,95.98
2016-03-29T01:31:58.880Z,95.79
2016-03-29T01:32:58.898Z,95.98
2016-03-29T01:34:05.795Z,95.6
2016-03-29T01:34:58.936Z,95.6
2016-03-29T01:35:58.969Z,95.6
2016-03-29T01:37:11.724Z,95.31
2016-03-29T01:37:59.583Z,95.41
2016-03-29T01:38:59.008Z,95.41
2016-03-29T01:40:24.701Z,95.12
2016-03-29T01:41:08.657Z,94.84
2016-03-29T01:42:08.675Z,95.03
2016-03-29T01:43:08.710Z,94.74
2016-03-29T01:44:08.727Z,94.65
2016-03-29T01:45:08.730Z,95.12
2016-03-29T01:46:21.483Z,95.31
2016-03-29T01:47:08.766Z,95.55
2016-03-29T01:48:21.519Z,95.84
2016-03-29T01:49:08.959Z,95.84
2016-03-29T01:50:08.822Z,96.12
2016-03-29T01:51:21.559Z,96.97
2016-03-29T01:52:21.577Z,97.17
2016-03-29T01:53:08.862Z,96.97
2016-03-29T01:54:08.864Z,96.5
2016-03-29T01:55:09.507Z,97.07
2016-03-29T01:56:08.947Z,98.02
2016-03-29T01:57:08.919Z,98.16
2016-03-29T01:58:08.937Z,98.35
2016-03-29T01:59:08.971Z,98.82
2016-03-29T02:00:08.973Z,99.11
2016-03-29T02:01:09.586Z,99.49
2016-03-29T02:02:21.807Z,99.99
2016-03-29T02:03:09.028Z,99.77
2016-03-29T02:04:09.047Z,99.96
2016-03-29T02:05:09.659Z,99.99
2016-03-29T02:06:09.068Z,99.99
2016-03-29T02:07:09.086Z,99.99
2016-03-29T02:08:09.105Z,99.99
2016-03-29T02:09:09.139Z,99.99
2016-03-29T02:10:09.142Z,99.99
2016-03-29T02:11:21.910Z,99.99
2016-03-29T02:12:09.177Z,99.99
2016-03-29T02:13:09.211Z,99.99
2016-03-29T02:14:09.199Z,99.99
2016-03-29T02:15:09.233Z,99.99
2016-03-29T02:16:09.236Z,99.99
2016-03-29T02:17:09.255Z,99.99
2016-03-29T02:18:09.272Z,99.99
2016-03-29T02:19:09.477Z,99.99
2016-03-29T02:20:15.590Z,99.99
2016-03-29T02:21:09.530Z,99.99
2016-03-29T02:22:09.345Z,99.99
2016-03-29T02:23:09.348Z,99.99
2016-03-29T02:24:09.350Z,99.99
2016-03-29T02:25:15.635Z,99.99
2016-03-29T02:26:09.496Z,99.99
2016-03-29T02:27:09.406Z,99.99
2016-03-29T02:28:09.440Z,99.99
2016-03-29T02:29:15.708Z,99.99
2016-03-29T02:30:09.461Z,99.99
2016-03-29T02:31:09.463Z,99.99
2016-03-29T02:32:15.841Z,99.99
2016-03-29T02:33:15.797Z,99.99
2016-03-29T02:34:09.503Z,99.99
2016-03-29T02:35:09.536Z,99.99
2016-03-29T02:36:09.555Z,99.99
2016-03-29T02:37:09.558Z,99.99
2016-03-29T02:38:09.575Z,99.99
2016-03-29T02:39:09.594Z,99.99
2016-03-29T02:40:09.613Z,99.99
2016-03-29T02:41:09.647Z,99.99
2016-03-29T02:42:15.914Z,99.99
2016-03-29T02:43:09.683Z,99.99
2016-03-29T02:44:09.655Z,99.99
2016-03-29T02:45:15.939Z,99.99
2016-03-29T02:46:10.316Z,99.99
2016-03-29T02:47:09.865Z,99.99
2016-03-29T02:48:11.135Z,99.99
2016-03-29T02:49:09.746Z,99.99
2016-03-29T02:50:09.749Z,99.99
2016-03-29T02:51:22.502Z,99.99
2016-03-29T02:52:09.786Z,99.99
2016-03-29T02:53:35.476Z,99.99
2016-03-29T02:54:16.103Z,99.99
2016-03-29T02:56:09.906Z,99.99
2016-03-29T02:57:09.862Z,99.99
2016-03-29T02:58:09.957Z,99.99
2016-03-29T02:59:09.882Z,99.99
2016-03-29T03:00:09.932Z,99.99
2016-03-29T03:01:22.685Z,99.99
2016-03-29T03:02:10.000Z,99.99
2016-03-29T03:03:09.971Z,99.99
2016-03-29T03:04:22.709Z,99.99
2016-03-29T03:05:11.398Z,99.99
2016-03-29T03:06:10.058Z,99.99
2016-03-29T03:07:10.045Z,99.99
2016-03-29T03:08:35.704Z,99.99
2016-03-29T03:09:19.581Z,99.99
2016-03-29T03:10:19.599Z,99.99
2016-03-29T03:11:25.805Z,99.99
2016-03-29T03:12:19.636Z,99.99
2016-03-29T03:13:19.638Z,99.99
2016-03-29T03:14:19.657Z,99.99
2016-03-29T03:15:19.675Z,99.99
2016-03-29T03:16:25.944Z,99.99
2016-03-29T03:17:19.696Z,99.99
2016-03-29T03:18:19.246Z,99.99
2016-03-29T03:19:19.858Z,99.99
2016-03-29T03:20:19.751Z,99.58
2016-03-29T03:21:19.769Z,99.77
2016-03-29T03:22:19.787Z,99.44
2016-03-29T03:23:19.807Z,99.44
2016-03-29T03:24:19.824Z,99.16
2016-03-29T03:25:19.827Z,98.54
2016-03-29T03:26:19.721Z,98.68
2016-03-29T03:27:19.864Z,98.21
2016-03-29T03:28:19.882Z,97.83
2016-03-29T03:29:21.306Z,97.64
2016-03-29T03:30:20.012Z,98.02
2016-03-29T03:31:20.015Z,97.83
2016-03-29T03:32:20.096Z,98.02
2016-03-29T03:33:20.051Z,98.11
2016-03-29T03:34:20.164Z,98.4
2016-03-29T03:35:32.714Z,98.4
2016-03-29T03:36:20.200Z,98.49
2016-03-29T03:37:39.204Z,98.54
2016-03-29T03:38:26.909Z,98.68
2016-03-29T03:39:45.787Z,98.3
2016-03-29T03:40:20.211Z,97.83
2016-03-29T03:41:20.105Z,97.74
2016-03-29T03:42:32.826Z,97.64
2016-03-29T03:43:20.110Z,97.64
2016-03-29T03:44:20.128Z,97.36
2016-03-29T03:45:32.880Z,97.07
2016-03-29T03:46:20.166Z,96.88
2016-03-29T03:47:20.183Z,96.97
2016-03-29T03:48:32.921Z,97.74
2016-03-29T03:49:45.877Z,96.88
2016-03-29T03:50:20.222Z,96.97
2016-03-29T03:51:20.850Z,96.97
2016-03-29T03:52:32.993Z,96.78
2016-03-29T03:53:20.278Z,96.88
2016-03-29T03:54:20.296Z,96.78
2016-03-29T03:55:33.032Z,96.12
2016-03-29T03:56:20.238Z,96.22
2016-03-29T03:57:20.195Z,96.59
2016-03-29T03:58:20.368Z,96.5
2016-03-29T03:59:20.357Z,95.93
2016-03-29T04:00:20.453Z,96.5
2016-03-29T04:01:20.409Z,96.12
2016-03-29T04:02:20.426Z,96.59
2016-03-29T04:03:20.429Z,95.74
2016-03-29T04:04:20.448Z,95.74
2016-03-29T04:05:21.059Z,95.93
2016-03-29T04:06:20.484Z,96.03
2016-03-29T04:07:20.517Z,95.93
2016-03-29T04:08:26.990Z,95.74
2016-03-29T04:09:26.805Z,96.22
2016-03-29T04:10:20.526Z,95.65
2016-03-29T04:11:20.561Z,95.84
2016-03-29T04:12:26.844Z,95.93
2016-03-29T04:13:20.597Z,95.51
2016-03-29T04:14:26.866Z,95.7
2016-03-29T04:15:33.461Z,95.12
2016-03-29T04:16:20.636Z,95.03
2016-03-29T04:17:39.857Z,95.03
2016-03-29T04:18:33.392Z,94.93
2016-03-29T04:19:20.691Z,94.74
2016-03-29T04:20:20.710Z,94.27
2016-03-29T04:22:20.730Z,94.56
2016-03-29T04:23:20.749Z,94.56
2016-03-29T04:24:20.767Z,94.56
2016-03-29T04:25:20.785Z,94.84
2016-03-29T04:26:33.554Z,94.56
2016-03-29T04:27:20.822Z,94.56
2016-03-29T04:28:20.857Z,94.56
2016-03-29T04:29:27.124Z,94.84
2016-03-29T04:30:20.909Z,94.37
2016-03-29T04:31:20.896Z,94.37
2016-03-29T04:32:20.914Z,94.37
2016-03-29T04:33:46.604Z,94.46
2016-03-29T04:34:30.779Z,94.18
2016-03-29T04:35:30.781Z,94.56
2016-03-29T04:36:30.800Z,94.46
2016-03-29T04:37:30.881Z,94.65
2016-03-29T04:38:30.851Z,94.56
2016-03-29T04:39:30.870Z,94.65
2016-03-29T04:40:30.873Z,94.56
2016-03-29T04:41:30.892Z,95.03
2016-03-29T04:42:30.894Z,94.37
2016-03-29T04:43:37.240Z,94.84
2016-03-29T04:44:37.211Z,94.74
2016-03-29T04:45:30.964Z,94.84
2016-03-29T04:46:50.170Z,95.22
2016-03-29T04:47:30.970Z,95.03
2016-03-29T04:48:31.003Z,95.31
2016-03-29T04:49:30.991Z,95.6
2016-03-29T04:51:02.338Z,95.79
2016-03-29T04:51:50.261Z,95.27
2016-03-29T04:52:31.061Z,95.6
2016-03-29T04:53:31.080Z,95.51
2016-03-29T04:54:40.677Z,95.22
2016-03-29T04:55:40.507Z,95.6
2016-03-29T04:56:40.775Z,95.7
2016-03-29T04:57:40.544Z,95.6
2016-03-29T04:58:40.563Z,95.79
2016-03-29T04:59:40.596Z,95.31
2016-03-29T05:00:41.193Z,95.31
2016-03-29T05:01:41.226Z,95.22
2016-03-29T05:02:47.088Z,95.03
2016-03-29T05:03:53.388Z,95.03
2016-03-29T05:04:40.671Z,95.22
2016-03-29T05:05:40.673Z,95.12
2016-03-29T05:06:53.427Z,95.12
2016-03-29T05:08:06.414Z,95.12
2016-03-29T05:08:40.729Z,95.22
2016-03-29T05:09:40.748Z,95.41
2016-03-29T05:10:40.767Z,95.31
2016-03-29T05:11:40.769Z,95.03
2016-03-29T05:12:40.817Z,95.31
2016-03-29T05:13:40.821Z,95.6
2016-03-29T05:14:40.823Z,95.31
2016-03-29T05:15:40.904Z,95.22
2016-03-29T05:16:40.860Z,95.41
2016-03-29T05:17:40.894Z,94.93
2016-03-29T05:18:40.881Z,94.56
2016-03-29T05:19:40.961Z,94.65
2016-03-29T05:20:40.919Z,94.74
2016-03-29T05:21:43.967Z,95.03
2016-03-29T05:22:40.970Z,94.74
2016-03-29T05:23:53.722Z,94.56
2016-03-29T05:24:41.194Z,94.74
2016-03-29T05:26:00.213Z,94.56
2016-03-29T05:26:42.449Z,94.37
2016-03-29T05:28:06.718Z,94.84
2016-03-29T05:28:56.861Z,94.56
2016-03-29T05:29:50.708Z,94.84
2016-03-29T05:31:03.367Z,94.93
2016-03-29T05:31:50.744Z,94.84
2016-03-29T05:34:13.034Z,94.56
2016-03-29T05:35:13.036Z,94.56
2016-03-29T05:36:13.040Z,94.46
2016-03-29T05:37:13.057Z,94.18
2016-03-29T05:38:13.091Z,94.08
2016-03-29T05:39:13.094Z,94.18
2016-03-29T05:40:19.378Z,93.6
2016-03-29T05:41:19.583Z,94.18
2016-03-29T05:42:13.164Z,93.7
2016-03-29T05:43:13.230Z,93.89
2016-03-29T05:44:13.185Z,93.89
2016-03-29T05:45:13.203Z,93.7
2016-03-29T05:46:13.222Z,94.18
2016-03-29T05:47:13.241Z,93.32
2016-03-29T05:48:19.524Z,94.08
2016-03-29T05:49:13.261Z,93.41
2016-03-29T05:50:13.279Z,93.37
2016-03-29T05:51:13.314Z,93.27
2016-03-29T05:52:13.332Z,92.99
2016-03-29T05:53:13.335Z,92.8
2016-03-29T05:54:13.369Z,92.8
2016-03-29T05:55:13.372Z,93.08
2016-03-29T05:56:13.405Z,92.99
2016-03-29T05:57:13.407Z,92.9
2016-03-29T05:58:13.488Z,92.71
2016-03-29T05:59:13.444Z,92.9
2016-03-29T06:00:13.446Z,92.42
2016-03-29T06:01:13.465Z,92.42
2016-03-29T06:02:13.484Z,92.51
2016-03-29T06:03:13.487Z,92.04
2016-03-29T06:04:13.505Z,92.04
2016-03-29T06:05:13.539Z,92.71
2016-03-29T06:06:13.542Z,92.42
2016-03-29T06:07:13.576Z,92.32
2016-03-29T06:08:13.593Z,92.42
2016-03-29T06:09:13.612Z,92.61
2016-03-29T06:10:13.618Z,91.85
2016-03-29T06:11:13.669Z,90.99
2016-03-29T06:12:13.671Z,90.14
2016-03-29T06:13:13.674Z,87.86
2016-03-29T06:14:13.708Z,85.43
2016-03-29T06:15:13.694Z,82.15
2016-03-29T06:16:13.713Z,79.91
2016-03-29T06:17:13.746Z,77.09
2016-03-29T06:18:26.485Z,73.51
2016-03-29T06:19:14.393Z,72.69
2016-03-29T06:20:13.787Z,72.41
2016-03-29T06:21:15.429Z,71.45
2016-03-29T06:22:13.917Z,71.48
2016-03-29T06:23:13.997Z,73.65
2016-03-29T06:24:20.218Z,75.55
2016-03-29T06:25:33.190Z,76.37
2016-03-29T06:26:20.209Z,77.37
2016-03-29T06:27:33.195Z,78
2016-03-29T06:28:26.714Z,79.05
2016-03-29T06:29:45.310Z,80.38
2016-03-29T06:30:33.189Z,80.63
2016-03-29T06:31:14.019Z,81.38
2016-03-29T06:33:30.414Z,81.86
2016-03-29T06:34:30.449Z,83
2016-03-29T06:35:43.186Z,84.05
2016-03-29T06:36:43.204Z,85.05
2016-03-29T06:37:56.161Z,85.43
2016-03-29T06:38:40.116Z,86.67
2016-03-29T06:39:40.072Z,87.52
2016-03-29T06:41:11.405Z,87.81
2016-03-29T06:41:43.327Z,87.52
2016-03-29T06:42:43.252Z,88.09
2016-03-29T06:43:52.801Z,87.43
2016-03-29T06:44:52.804Z,88
2016-03-29T06:45:52.821Z,88.67
2016-03-29T06:46:52.857Z,88.76
2016-03-29T06:48:05.593Z,88.76
2016-03-29T06:48:53.487Z,88.85
2016-03-29T06:49:52.943Z,88.76
2016-03-29T06:50:56.038Z,88.57
2016-03-29T06:52:21.748Z,88.57
2016-03-29T06:53:05.607Z,88
2016-03-29T06:54:05.626Z,88.38
2016-03-29T06:55:18.354Z,88.38
2016-03-29T06:56:06.244Z,88.57
2016-03-29T06:57:31.294Z,88.09
2016-03-29T06:58:18.358Z,88.09
2016-03-29T06:59:36.942Z,87.43
2016-03-29T07:00:05.645Z,87.71
2016-03-29T07:01:05.673Z,86.19
2016-03-29T07:02:40.041Z,85.62
2016-03-29T07:03:40.053Z,84.05
2016-03-29T07:04:40.067Z,83.67
2016-03-29T07:05:55.224Z,83.39
2016-03-29T07:06:55.271Z,82.71
2016-03-29T07:08:26.570Z,84.14
2016-03-29T07:09:35.977Z,84.24
2016-03-29T07:10:10.305Z,84.52
2016-03-29T07:11:41.683Z,85.66
2016-03-29T07:12:17.310Z,85.81
2016-03-29T07:14:29.517Z,86.38
2016-03-29T07:15:29.535Z,87.43
2016-03-29T07:17:44.727Z,87.62
2016-03-29T07:18:44.824Z,87.62
2016-03-29T07:19:57.514Z,87.62
2016-03-29T07:20:44.798Z,87.71
2016-03-29T07:22:04.020Z,86.95
2016-03-29T07:22:44.834Z,86.33
2016-03-29T07:23:44.852Z,85.15
2016-03-29T07:24:45.465Z,85
2016-03-29T07:25:44.890Z,83.86
2016-03-29T07:26:45.267Z,83.23
2016-03-29T07:27:44.942Z,82
2016-03-29T07:28:45.163Z,80.33
2016-03-29T07:29:51.244Z,79.85
2016-03-29T07:30:51.247Z,78.8
2016-03-29T07:31:45.593Z,78.61
2016-03-29T07:32:45.002Z,77.95
2016-03-29T07:34:04.255Z,76.94
2016-03-29T07:34:45.054Z,76.79
2016-03-29T07:35:45.119Z,75.26
2016-03-29T07:36:45.091Z,74.21
2016-03-29T07:37:45.125Z,74.6
2016-03-29T07:38:45.144Z,74.31
2016-03-29T07:39:45.146Z,74.88
2016-03-29T07:40:45.383Z,74.98
2016-03-29T07:41:45.339Z,75.04
2016-03-29T07:42:45.216Z,75.23
2016-03-29T07:43:45.251Z,74.88
2016-03-29T07:44:45.237Z,73.83
2016-03-29T07:45:45.271Z,72.78
2016-03-29T07:46:45.321Z,71.2
2016-03-29T07:47:45.324Z,70.25
2016-03-29T07:48:45.389Z,70
2016-03-29T07:49:45.346Z,68.85
2016-03-29T07:50:45.379Z,67.52
2016-03-29T07:51:45.398Z,66.69
2016-03-29T07:52:45.415Z,66.31
2016-03-29T07:53:45.435Z,66.6
2016-03-29T07:54:45.468Z,67.17
2016-03-29T07:55:45.486Z,67.52
2016-03-29T07:56:51.865Z,67.99
2016-03-29T07:57:45.523Z,68.28
2016-03-29T07:58:45.542Z,69.29
2016-03-29T07:59:45.560Z,69.58
2016-03-29T08:00:45.593Z,70.53
2016-03-29T08:01:45.596Z,71.39
2016-03-29T08:02:45.615Z,71.39
2016-03-29T08:03:45.851Z,70.15
2016-03-29T08:04:45.667Z,70.72
2016-03-29T08:05:58.436Z,69.58
2016-03-29T08:06:45.720Z,69.81
2016-03-29T08:07:45.784Z,69.23
2016-03-29T08:08:46.365Z,69.04
2016-03-29T08:09:45.775Z,68.18
2016-03-29T08:10:45.777Z,68.91
2016-03-29T08:11:58.577Z,68.95
2016-03-29T08:12:45.875Z,69.52
2016-03-29T08:13:45.863Z,67.8
2016-03-29T08:14:45.975Z,67.42
2016-03-29T08:15:45.900Z,67.71
2016-03-29T08:16:45.934Z,67.23
2016-03-29T08:17:45.952Z,65.99
2016-03-29T08:18:45.971Z,67.23
2016-03-29T08:19:45.988Z,67.9
2016-03-29T08:20:45.991Z,67.71
2016-03-29T08:21:46.119Z,68.38
2016-03-29T08:22:46.060Z,69.29
2016-03-29T08:23:46.141Z,69.96
2016-03-29T08:24:58.830Z,71.3
2016-03-29T08:25:46.146Z,71.83
2016-03-29T08:27:11.820Z,72.02
2016-03-29T08:27:46.166Z,72.5
2016-03-29T08:28:46.185Z,73.36
2016-03-29T08:29:46.407Z,74.84
2016-03-29T08:30:46.221Z,75.23
2016-03-29T08:31:46.256Z,75.13
2016-03-29T08:32:46.273Z,74.18
2016-03-29T08:33:46.292Z,72.75
2016-03-29T08:34:46.326Z,73.7
2016-03-29T08:35:46.345Z,74.56
2016-03-29T08:36:46.363Z,73.55
2016-03-29T08:37:46.397Z,72.97
2016-03-29T08:38:52.665Z,72.88
2016-03-29T08:39:59.152Z,73.17
2016-03-29T08:40:46.436Z,71.93
2016-03-29T08:41:46.470Z,71.07
2016-03-29T08:42:46.503Z,71.73
2016-03-29T08:44:12.178Z,71.07
2016-03-29T08:44:46.524Z,72.12
2016-03-29T08:45:46.559Z,72.5
2016-03-29T08:46:46.561Z,72.41
2016-03-29T08:47:46.642Z,72.12
2016-03-29T08:48:46.598Z,70.53
2016-03-29T08:49:46.616Z,71.96
2016-03-29T08:50:46.635Z,71.26
2016-03-29T08:51:46.652Z,71.55
2016-03-29T08:52:46.688Z,71.83
2016-03-29T08:53:46.721Z,71.93
2016-03-29T08:54:46.739Z,72.12
2016-03-29T08:55:46.758Z,72.5
2016-03-29T08:56:46.760Z,73.07
2016-03-29T08:57:46.810Z,72.69
2016-03-29T08:58:46.829Z,72.06
2016-03-29T08:59:59.565Z,69.96
2016-03-29T09:00:47.474Z,69.96
2016-03-29T09:01:46.898Z,69.2
2016-03-29T09:02:47.510Z,69.58
2016-03-29T09:03:46.920Z,70.06
2016-03-29T09:04:59.688Z,70.02
2016-03-29T09:05:46.957Z,71.45
2016-03-29T09:06:46.991Z,72.31
2016-03-29T09:07:46.994Z,72.21
2016-03-29T09:08:59.777Z,72.5
2016-03-29T09:09:47.030Z,72.97
2016-03-29T09:10:47.065Z,72.69
2016-03-29T09:11:47.082Z,72.5
2016-03-29T09:12:47.117Z,71.64
2016-03-29T09:13:47.744Z,72.12
2016-03-29T09:14:47.153Z,71.93
2016-03-29T09:15:47.187Z,71.73
2016-03-29T09:16:47.190Z,72.5
2016-03-29T09:17:47.224Z,72.41
2016-03-29T09:18:47.226Z,72.88
2016-03-29T09:19:47.245Z,72.78
2016-03-29T09:20:47.263Z,71.58
2016-03-29T09:21:47.501Z,71.3
2016-03-29T09:22:47.331Z,69.96
2016-03-29T09:23:53.600Z,70.25
2016-03-29T09:24:47.415Z,71.14
2016-03-29T09:25:47.370Z,70.25
2016-03-29T09:26:47.405Z,69.96
2016-03-29T09:27:47.422Z,69.48
2016-03-29T09:28:47.644Z,70.19
2016-03-29T09:29:47.474Z,69.23
2016-03-29T09:30:47.508Z,69.33
2016-03-29T09:31:47.511Z,69.52
2016-03-29T09:32:47.546Z,70
2016-03-29T09:33:47.549Z,70.09
2016-03-29T09:34:47.567Z,70.09
2016-03-29T09:35:47.600Z,69.71
2016-03-29T09:36:47.619Z,70
2016-03-29T09:37:47.637Z,70.19
2016-03-29T09:38:47.655Z,69.33
2016-03-29T09:39:47.674Z,69.81
2016-03-29T09:40:47.692Z,69.23
2016-03-29T09:41:47.726Z,69.23
2016-03-29T09:42:54.009Z,69.71
2016-03-29T09:43:47.746Z,68.38
2016-03-29T09:44:47.781Z,69.43
2016-03-29T09:45:47.804Z,68.95
2016-03-29T09:46:47.823Z,68.85
2016-03-29T09:47:47.856Z,69.58
2016-03-29T09:48:47.875Z,69.77
2016-03-29T09:49:48.502Z,70.53
2016-03-29T09:50:47.911Z,71.87
2016-03-29T09:52:00.664Z,70.97
2016-03-29T09:52:47.963Z,71.93
2016-03-29T09:53:47.982Z,72.12
2016-03-29T09:54:48.734Z,71.83
2016-03-29T09:55:48.019Z,72.41
2016-03-29T09:57:00.772Z,74.02
2016-03-29T09:57:48.055Z,74.02
2016-03-29T09:58:48.074Z,74.4
2016-03-29T10:00:00.857Z,75.23
2016-03-29T10:00:48.110Z,75.04
2016-03-29T10:01:48.174Z,74.56
2016-03-29T10:02:48.146Z,74.84
2016-03-29T10:03:48.180Z,75.23
2016-03-29T10:04:48.198Z,75.32
2016-03-29T10:05:48.233Z,75.51
2016-03-29T10:06:48.235Z,75.23
2016-03-29T10:07:48.269Z,74.65
2016-03-29T10:08:48.288Z,75.42
2016-03-29T10:09:48.306Z,74.84
2016-03-29T10:10:48.324Z,73.89
2016-03-29T10:11:48.342Z,73.65
2016-03-29T10:12:48.440Z,72.56
2016-03-29T10:13:48.395Z,70.97
2016-03-29T10:14:48.413Z,71.36
2016-03-29T10:15:48.416Z,72.12
2016-03-29T10:16:48.450Z,71.7
2016-03-29T10:17:48.468Z,72.5
2016-03-29T10:18:48.487Z,73.8
2016-03-29T10:19:48.489Z,74.18
2016-03-29T10:20:48.523Z,75.04
2016-03-29T10:21:48.556Z,74.94
2016-03-29T10:22:48.575Z,74.27
2016-03-29T10:23:54.859Z,74.46
2016-03-29T10:24:48.597Z,74.9
2016-03-29T10:25:48.647Z,74.65
2016-03-29T10:26:48.649Z,75.32
2016-03-29T10:27:48.667Z,74.94
2016-03-29T10:28:54.966Z,74.43
2016-03-29T10:29:48.719Z,75.85
2016-03-29T10:30:48.737Z,75.57
2016-03-29T10:31:48.740Z,75.99
2016-03-29T10:32:48.774Z,74.8
2016-03-29T10:33:48.792Z,74.62
2016-03-29T10:34:48.810Z,75.67
2016-03-29T10:35:48.844Z,75.38
2016-03-29T10:36:48.925Z,76.23
2016-03-29T10:37:48.881Z,76.81
2016-03-29T10:38:48.962Z,78.42
2016-03-29T10:39:48.902Z,77.76
2016-03-29T10:40:48.937Z,78.14
2016-03-29T10:41:48.939Z,77.85
2016-03-29T10:42:48.957Z,77.03
2016-03-29T10:43:48.990Z,74.94
2016-03-29T10:44:49.009Z,74.84
2016-03-29T10:45:49.028Z,73.26
2016-03-29T10:46:49.045Z,71.39
2016-03-29T10:47:50.486Z,70.34
2016-03-29T10:49:01.817Z,71.3
2016-03-29T10:50:01.866Z,71.23
2016-03-29T10:50:49.119Z,70.09
2016-03-29T10:51:49.153Z,68.88
2016-03-29T10:52:49.187Z,67.36
2016-03-29T10:53:49.205Z,66.06
2016-03-29T10:54:49.209Z,64.53
2016-03-29T10:55:49.242Z,64.43
2016-03-29T10:56:49.245Z,63.86
2016-03-29T10:57:49.903Z,63.57
2016-03-29T10:58:49.298Z,63.1
2016-03-29T10:59:49.316Z,62.71
2016-03-29T11:00:49.334Z,63.2
2016-03-29T11:01:49.368Z,63.2
2016-03-29T11:02:49.386Z,64.05
2016-03-29T11:03:49.389Z,63.51
2016-03-29T11:04:49.422Z,62.55
2016-03-29T11:05:49.457Z,61.69
2016-03-29T11:06:49.474Z,61.51
2016-03-29T11:07:49.680Z,61.35
2016-03-29T11:08:49.512Z,61.44
2016-03-29T11:09:49.546Z,62.3
2016-03-29T11:10:49.563Z,61.92
2016-03-29T11:12:02.488Z,61.69
2016-03-29T11:12:49.585Z,61.6
2016-03-29T11:13:49.634Z,61.03
2016-03-29T11:14:49.653Z,61.89
2016-03-29T11:15:49.873Z,61.22
2016-03-29T11:16:49.704Z,62.37
2016-03-29T11:17:49.832Z,60.46
2016-03-29T11:18:55.992Z,63.13
2016-03-29T11:19:49.760Z,63.67
2016-03-29T11:21:02.497Z,64.72
2016-03-29T11:21:49.797Z,66.31
2016-03-29T11:23:09.034Z,69.04
2016-03-29T11:23:49.864Z,70.47
2016-03-29T11:25:21.180Z,73.39
2016-03-29T11:25:49.901Z,73.87
2016-03-29T11:26:49.936Z,74.06
2016-03-29T11:27:50.017Z,73.68
2016-03-29T11:28:49.972Z,72.16
2016-03-29T11:29:49.975Z,69.96
2016-03-29T11:30:56.274Z,70
2016-03-29T11:31:50.027Z,70
2016-03-29T11:32:50.045Z,69.43
2016-03-29T11:33:50.063Z,68.32
2016-03-29T11:34:51.503Z,68.41
2016-03-29T11:35:50.115Z,68.79
2016-03-29T11:37:09.338Z,68.03
2016-03-29T11:37:50.168Z,66.6
2016-03-29T11:39:15.858Z,67.07
2016-03-29T11:39:50.205Z,66.38
2016-03-29T11:42:02.991Z,68.57
2016-03-29T11:42:50.274Z,69.68
2016-03-29T11:44:09.496Z,71.01
2016-03-29T11:44:50.311Z,70.34
2016-03-29T11:45:50.314Z,71.01
2016-03-29T11:47:03.082Z,72.82
2016-03-29T11:47:50.366Z,72.06
2016-03-29T11:49:09.587Z,69.58
2016-03-29T11:49:50.403Z,68.76
2016-03-29T11:50:50.546Z,68.7
2016-03-29T11:51:51.064Z,65.83
2016-03-29T11:54:00.133Z,62.18
2016-03-29T11:55:00.151Z,61.89
2016-03-29T11:56:00.154Z,61.13
2016-03-29T11:57:00.203Z,60.36
2016-03-29T11:58:15.394Z,60.39
2016-03-29T11:59:15.505Z,59.91
2016-03-29T12:00:28.258Z,60.2
2016-03-29T12:01:28.277Z,60.3
2016-03-29T12:02:15.592Z,59.81
2016-03-29T12:03:15.547Z,59.81
2016-03-29T12:04:16.253Z,60.99
2016-03-29T12:05:15.615Z,60.96
2016-03-29T12:06:28.336Z,61.72
2016-03-29T12:07:15.602Z,61.54
2016-03-29T12:08:41.293Z,62.68
2016-03-29T12:09:15.638Z,62.84
2016-03-29T12:10:46.954Z,63.42
2016-03-29T12:11:15.691Z,63.32
2016-03-29T12:12:15.740Z,61.6
2016-03-29T12:13:15.712Z,61.41
2016-03-29T12:14:15.745Z,61.13
2016-03-29T12:15:34.967Z,61.57
2016-03-29T12:16:15.815Z,61.66
2016-03-29T12:17:15.817Z,62.24
2016-03-29T12:18:15.850Z,62.52
2016-03-29T12:19:28.587Z,62.43
2016-03-29T12:20:15.902Z,61.86
2016-03-29T12:21:15.905Z,60.61
2016-03-29T12:22:15.939Z,60.33
2016-03-29T12:23:15.958Z,61.66
2016-03-29T12:24:15.992Z,61.66
2016-03-29T12:25:15.979Z,61.44
2016-03-29T12:26:16.028Z,62.59
2016-03-29T12:27:16.062Z,61.83
2016-03-29T12:28:16.050Z,61.44
2016-03-29T12:29:16.083Z,61.35
2016-03-29T12:30:28.836Z,60.87
2016-03-29T12:31:28.870Z,61.25
2016-03-29T12:32:16.154Z,61.83
2016-03-29T12:33:16.188Z,61.35
2016-03-29T12:34:16.191Z,62.43
2016-03-29T12:35:16.224Z,60.87
2016-03-29T12:36:16.258Z,61.47
2016-03-29T12:37:16.276Z,62.71
2016-03-29T12:38:16.295Z,61.63
2016-03-29T12:39:16.313Z,60.49
2016-03-29T12:40:16.362Z,60.9
2016-03-29T12:41:16.349Z,61.38
2016-03-29T12:42:16.446Z,61.76
2016-03-29T12:43:29.137Z,61
2016-03-29T12:44:16.405Z,61.19
2016-03-29T12:45:35.674Z,59.5
2016-03-29T12:46:16.473Z,58.64
2016-03-29T12:47:42.163Z,59.22
2016-03-29T12:48:16.510Z,58.16
2016-03-29T12:49:16.543Z,58.07
2016-03-29T12:50:16.546Z,57.21
2016-03-29T12:51:17.237Z,57.04
2016-03-29T12:52:23.004Z,57.53
2016-03-29T12:53:16.679Z,56.57
2016-03-29T12:54:16.650Z,55.8
2016-03-29T12:55:16.669Z,56.95
2016-03-29T12:56:16.703Z,57.62
2016-03-29T12:57:16.721Z,57.43
2016-03-29T12:58:16.755Z,55.71
2016-03-29T12:59:16.758Z,57.02
2016-03-29T13:00:16.932Z,58.26
2016-03-29T13:01:16.794Z,58.73
2016-03-29T13:02:16.859Z,59.5
2016-03-29T13:03:16.862Z,58.83
2016-03-29T13:04:17.036Z,58.23
2016-03-29T13:05:23.180Z,58.23
2016-03-29T13:06:23.182Z,58.04
2016-03-29T13:07:16.951Z,58.23
2016-03-29T13:08:16.985Z,57.37
2016-03-29T13:09:16.988Z,57.46